createdAt,value
2023-02-23T00:01:19.478Z,56.56
2023-02-23T00:03:46.670Z,56.69
2023-02-23T00:06:13.819Z,56.58
2023-02-23T00:08:40.648Z,56.43
2023-02-23T00:11:09.400Z,56.42
2023-02-23T00:13:37.704Z,56.44
2023-02-23T00:16:12.830Z,56.31
2023-02-23T00:18:45.824Z,56.32
2023-02-23T00:21:15.475Z,56.00
2023-02-23T00:24:09.438Z,55.85
2023-02-23T00:26:37.771Z,55.59
2023-02-23T00:29:06.958Z,55.65
2023-02-23T00:31:34.287Z,55.84
2023-02-23T00:34:02.699Z,55.38
2023-02-23T00:36:32.294Z,55.54
2023-02-23T00:39:00.732Z,55.40
2023-02-23T00:41:30.490Z,55.05
2023-02-23T00:43:58.305Z,54.95
2023-02-23T00:46:30.011Z,54.91
2023-02-23T00:48:58.270Z,54.90
2023-02-23T00:51:32.261Z,54.66
2023-02-23T00:54:00.121Z,54.87
2023-02-23T00:56:27.989Z,54.89
2023-02-23T00:58:55.184Z,54.87
2023-02-23T01:01:22.366Z,54.76
2023-02-23T01:03:49.189Z,55.08
2023-02-23T01:06:16.780Z,54.83
2023-02-23T01:08:45.324Z,54.75
2023-02-23T01:11:13.766Z,54.60
2023-02-23T01:13:41.629Z,54.61
2023-02-23T01:16:09.974Z,54.69
2023-02-23T01:18:37.184Z,54.50
2023-02-23T01:21:05.590Z,54.59
2023-02-23T01:23:32.719Z,54.41
2023-02-23T01:25:59.626Z,54.46
2023-02-23T01:28:26.460Z,54.50
2023-02-23T01:30:53.446Z,54.17
2023-02-23T01:33:20.377Z,54.25
2023-02-23T01:35:57.930Z,54.34
2023-02-23T01:38:24.668Z,54.54
2023-02-23T01:40:51.428Z,54.58
2023-02-23T01:43:26.114Z,54.43
2023-02-23T01:45:55.312Z,54.43
2023-02-23T01:48:23.596Z,54.37
2023-02-23T01:51:03.814Z,54.53
2023-02-23T01:53:34.121Z,54.15
2023-02-23T01:56:04.058Z,54.42
2023-02-23T01:58:30.805Z,54.40
2023-02-23T02:00:58.727Z,54.37
2023-02-23T02:03:44.351Z,54.74
2023-02-23T02:06:14.293Z,54.80
2023-02-23T02:08:45.646Z,54.55
2023-02-23T02:11:26.153Z,54.54
2023-02-23T02:13:54.388Z,54.49
2023-02-23T02:16:48.011Z,54.38
2023-02-23T02:19:27.009Z,54.20
2023-02-23T02:22:31.057Z,54.20
2023-02-23T02:25:13.207Z,54.16
2023-02-23T02:28:08.920Z,53.92
2023-02-23T02:31:08.613Z,53.91
2023-02-23T02:34:03.364Z,53.94
2023-02-23T02:36:52.867Z,53.73
2023-02-23T02:39:24.522Z,53.88
2023-02-23T02:42:21.787Z,53.87
2023-02-23T02:45:07.941Z,53.95
2023-02-23T02:47:54.525Z,53.75
2023-02-23T02:50:31.510Z,53.77
2023-02-23T02:53:11.661Z,53.89
2023-02-23T02:55:41.500Z,53.84
2023-02-23T02:58:08.309Z,53.79
2023-02-23T03:00:59.615Z,53.95
2023-02-23T03:03:59.008Z,53.71
2023-02-23T03:06:50.034Z,54.18
2023-02-23T03:09:35.270Z,53.93
2023-02-23T03:12:49.805Z,54.13
2023-02-23T03:15:40.936Z,53.87
2023-02-23T03:18:49.815Z,53.89
2023-02-23T03:21:38.172Z,53.97
2023-02-23T03:24:55.586Z,53.93
2023-02-23T03:28:04.357Z,54.07
2023-02-23T03:31:19.185Z,54.08
2023-02-23T03:34:19.220Z,53.96
2023-02-23T03:37:05.938Z,54.21
2023-02-23T03:39:57.385Z,53.87
2023-02-23T03:42:45.305Z,53.84
2023-02-23T03:45:32.682Z,54.16
2023-02-23T03:48:18.008Z,54.00
2023-02-23T03:51:09.613Z,53.91
2023-02-23T03:54:02.899Z,54.15
2023-02-23T03:56:48.356Z,54.17
2023-02-23T03:59:33.718Z,54.12
2023-02-23T04:02:19.010Z,54.13
2023-02-23T04:05:04.409Z,54.15
2023-02-23T04:07:49.628Z,54.15
2023-02-23T04:10:35.542Z,54.12
2023-02-23T04:13:25.327Z,54.40
2023-02-23T04:16:01.917Z,54.58
2023-02-23T04:18:36.613Z,54.42
2023-02-23T04:21:04.212Z,54.29
2023-02-23T04:23:31.261Z,54.42
2023-02-23T04:25:58.105Z,54.39
2023-02-23T04:28:25.834Z,54.44
2023-02-23T04:30:53.013Z,54.34
2023-02-23T04:33:21.737Z,54.42
2023-02-23T04:35:49.103Z,54.44
2023-02-23T04:38:15.834Z,54.71
2023-02-23T04:40:42.692Z,54.57
2023-02-23T04:43:12.142Z,54.54
2023-02-23T04:45:38.964Z,54.72
2023-02-23T04:48:06.078Z,54.64
2023-02-23T04:50:32.962Z,54.73
2023-02-23T04:52:59.978Z,54.62
2023-02-23T04:55:26.909Z,54.74
2023-02-23T04:57:58.204Z,54.65
2023-02-23T05:00:25.106Z,54.83
2023-02-23T05:02:51.910Z,54.61
2023-02-23T05:05:19.103Z,54.98
2023-02-23T05:07:45.955Z,55.04
2023-02-23T05:10:12.743Z,54.67
2023-02-23T05:12:39.688Z,54.75
2023-02-23T05:15:07.118Z,54.73
2023-02-23T05:17:33.952Z,55.13
2023-02-23T05:20:00.850Z,54.97
2023-02-23T05:22:27.660Z,54.81
2023-02-23T05:24:57.135Z,54.88
2023-02-23T05:27:24.350Z,54.61
2023-02-23T05:29:51.065Z,54.50
2023-02-23T05:32:18.266Z,54.52
2023-02-23T05:34:45.281Z,54.62
2023-02-23T05:37:12.099Z,54.67
2023-02-23T05:39:39.334Z,54.58
2023-02-23T05:42:06.320Z,54.53
2023-02-23T05:44:33.181Z,54.66
2023-02-23T05:47:00.177Z,54.66
2023-02-23T05:49:27.022Z,54.71
2023-02-23T05:51:53.754Z,54.72
2023-02-23T05:54:20.495Z,54.69
2023-02-23T05:56:47.441Z,54.64
2023-02-23T05:59:14.366Z,54.88
2023-02-23T06:01:41.698Z,54.74
2023-02-23T06:04:08.646Z,54.67
2023-02-23T06:06:35.539Z,54.77
2023-02-23T06:09:03.761Z,54.54
2023-02-23T06:11:31.265Z,54.64
2023-02-23T06:13:59.541Z,55.12
2023-02-23T06:16:27.456Z,54.92
2023-02-23T06:18:54.406Z,54.94
2023-02-23T06:21:21.568Z,54.99
2023-02-23T06:23:48.333Z,55.24
2023-02-23T06:26:15.143Z,55.41
2023-02-23T06:28:41.931Z,55.08
2023-02-23T06:31:08.830Z,55.21
2023-02-23T06:33:35.821Z,55.19
2023-02-23T06:36:02.574Z,54.97
2023-02-23T06:38:29.450Z,55.03
2023-02-23T06:40:56.377Z,55.10
2023-02-23T06:43:23.505Z,55.10
2023-02-23T06:45:50.512Z,55.23
2023-02-23T06:48:17.911Z,55.12
2023-02-23T06:50:44.713Z,55.05
2023-02-23T06:53:11.421Z,55.18
2023-02-23T06:55:38.412Z,55.23
2023-02-23T06:58:06.663Z,55.09
2023-02-23T07:00:33.590Z,55.03
2023-02-23T07:03:00.555Z,54.93
2023-02-23T07:05:27.443Z,55.01
2023-02-23T07:07:54.312Z,54.91
2023-02-23T07:10:21.216Z,55.01
2023-02-23T07:12:48.062Z,54.98
2023-02-23T07:15:17.810Z,55.10
2023-02-23T07:17:45.359Z,55.05
2023-02-23T07:20:12.781Z,55.10
2023-02-23T07:22:40.084Z,55.25
2023-02-23T07:25:08.854Z,55.21
2023-02-23T07:27:36.095Z,55.24
2023-02-23T07:30:03.187Z,55.16
2023-02-23T07:32:30.424Z,55.46
2023-02-23T07:34:57.239Z,55.29
2023-02-23T07:37:23.966Z,55.37
2023-02-23T07:39:50.781Z,55.39
2023-02-23T07:42:17.578Z,55.52
2023-02-23T07:44:44.851Z,55.35
2023-02-23T07:47:11.763Z,55.77
2023-02-23T07:49:38.655Z,56.08
2023-02-23T07:52:05.526Z,56.33
2023-02-23T07:54:32.278Z,56.89
2023-02-23T07:56:59.627Z,57.01
2023-02-23T07:59:26.436Z,57.02
2023-02-23T08:01:53.287Z,56.56
2023-02-23T08:04:20.293Z,56.76
2023-02-23T08:06:47.080Z,56.34
2023-02-23T08:09:14.126Z,56.11
2023-02-23T08:11:41.050Z,56.44
2023-02-23T08:14:07.809Z,56.46
2023-02-23T08:16:34.699Z,56.68
2023-02-23T08:19:01.771Z,56.99
2023-02-23T08:21:29.713Z,57.12
2023-02-23T08:23:57.973Z,56.87
2023-02-23T08:26:25.727Z,56.85
2023-02-23T08:28:53.595Z,56.55
2023-02-23T08:31:24.450Z,56.23
2023-02-23T08:33:52.125Z,56.24
2023-02-23T08:36:18.991Z,56.12
2023-02-23T08:38:45.731Z,55.78
2023-02-23T08:41:12.636Z,55.27
2023-02-23T08:43:39.431Z,54.91
2023-02-23T08:46:07.009Z,53.57
2023-02-23T08:48:34.188Z,52.59
2023-02-23T08:51:01.055Z,51.89
2023-02-23T08:53:29.937Z,51.56
2023-02-23T08:56:00.964Z,51.23
2023-02-23T08:58:28.533Z,50.79
2023-02-23T09:00:55.374Z,50.11
2023-02-23T09:03:22.575Z,49.65
2023-02-23T09:05:49.949Z,49.04
2023-02-23T09:08:16.743Z,48.58
2023-02-23T09:10:46.377Z,48.12
2023-02-23T09:13:13.338Z,47.79
2023-02-23T09:15:40.433Z,47.23
2023-02-23T09:18:07.912Z,46.62
2023-02-23T09:20:34.842Z,46.34
2023-02-23T09:23:01.676Z,45.54
2023-02-23T09:25:29.572Z,45.13
2023-02-23T09:28:00.189Z,43.83
2023-02-23T09:30:27.097Z,43.87
2023-02-23T09:32:54.893Z,43.45
2023-02-23T09:35:22.765Z,43.15
2023-02-23T09:37:53.733Z,42.61
2023-02-23T09:40:28.356Z,42.44
2023-02-23T09:43:01.211Z,41.69
2023-02-23T09:45:55.121Z,41.67
2023-02-23T09:48:23.758Z,40.85
2023-02-23T09:50:52.347Z,41.25
2023-02-23T09:53:50.647Z,40.77
2023-02-23T09:56:40.285Z,40.65
2023-02-23T09:59:10.567Z,40.99
2023-02-23T10:01:46.612Z,40.16
2023-02-23T10:04:50.256Z,39.39
2023-02-23T10:07:32.173Z,38.68
2023-02-23T10:10:23.221Z,38.37
2023-02-23T10:13:01.519Z,37.88
2023-02-23T10:15:40.413Z,38.00
2023-02-23T10:18:10.654Z,37.98
2023-02-23T10:20:43.846Z,37.41
2023-02-23T10:23:18.322Z,36.84
2023-02-23T10:25:48.993Z,35.86
2023-02-23T10:28:17.163Z,35.86
2023-02-23T10:30:44.132Z,36.16
2023-02-23T10:33:21.357Z,35.69
2023-02-23T10:35:48.142Z,36.16
2023-02-23T10:38:17.485Z,35.71
2023-02-23T10:40:50.421Z,35.83
2023-02-23T10:43:17.173Z,35.60
2023-02-23T10:45:46.354Z,35.08
2023-02-23T10:48:22.196Z,34.16
2023-02-23T10:50:49.577Z,34.39
2023-02-23T10:53:24.234Z,32.97
2023-02-23T10:56:11.004Z,32.06
2023-02-23T10:58:41.521Z,32.36
2023-02-23T11:01:08.904Z,31.74
2023-02-23T11:03:39.199Z,31.58
2023-02-23T11:06:07.293Z,31.81
2023-02-23T11:08:36.306Z,31.62
2023-02-23T11:11:15.722Z,31.26
2023-02-23T11:13:44.886Z,31.59
2023-02-23T11:16:16.524Z,31.21
2023-02-23T11:19:14.056Z,30.94
2023-02-23T11:21:41.573Z,31.24
2023-02-23T11:24:30.969Z,30.95
2023-02-23T11:27:00.599Z,31.10
2023-02-23T11:29:36.628Z,29.80
2023-02-23T11:32:14.431Z,29.93
2023-02-23T11:34:41.401Z,29.10
2023-02-23T11:37:15.355Z,28.64
2023-02-23T11:40:03.146Z,28.57
2023-02-23T11:42:33.610Z,29.92
2023-02-23T11:45:17.073Z,30.01
2023-02-23T11:47:49.705Z,30.37
2023-02-23T11:50:30.746Z,29.28
2023-02-23T11:53:04.011Z,29.08
2023-02-23T11:55:31.586Z,28.09
2023-02-23T11:58:29.943Z,28.74
2023-02-23T12:01:01.103Z,30.06
2023-02-23T12:03:29.279Z,29.42
2023-02-23T12:05:57.902Z,28.29
2023-02-23T12:08:45.746Z,28.23
2023-02-23T12:11:18.634Z,28.82
2023-02-23T12:14:00.958Z,29.52
2023-02-23T12:16:31.247Z,29.57
2023-02-23T12:19:29.352Z,29.17
2023-02-23T12:21:58.687Z,29.50
2023-02-23T12:24:34.782Z,28.15
2023-02-23T12:27:06.516Z,27.64
2023-02-23T12:30:09.412Z,27.99
2023-02-23T12:32:56.468Z,28.40
2023-02-23T12:35:33.935Z,29.04
2023-02-23T12:38:01.467Z,29.29
2023-02-23T12:40:30.347Z,28.48
2023-02-23T12:43:09.239Z,29.00
2023-02-23T12:45:49.352Z,29.17
2023-02-23T12:48:25.805Z,29.32
2023-02-23T12:50:53.995Z,30.00
2023-02-23T12:53:29.505Z,29.44
2023-02-23T12:56:15.107Z,29.00
2023-02-23T12:58:56.952Z,29.10
2023-02-23T13:01:36.480Z,29.05
2023-02-23T13:04:09.502Z,29.39
2023-02-23T13:06:41.824Z,29.69
2023-02-23T13:09:44.249Z,29.10
2023-02-23T13:12:18.073Z,28.55
2023-02-23T13:14:48.472Z,28.41
2023-02-23T13:17:28.031Z,28.51
2023-02-23T13:19:58.941Z,27.98
2023-02-23T13:22:25.811Z,27.35
2023-02-23T13:24:52.763Z,28.18
2023-02-23T13:27:25.629Z,28.58
2023-02-23T13:29:55.443Z,28.98
2023-02-23T13:32:24.393Z,29.26
2023-02-23T13:35:00.866Z,28.38
2023-02-23T13:37:35.120Z,28.53
2023-02-23T13:40:36.824Z,28.23
2023-02-23T13:43:30.005Z,28.97
2023-02-23T13:46:37.534Z,29.14
2023-02-23T13:49:10.739Z,29.85
2023-02-23T13:51:38.361Z,30.41
2023-02-23T13:54:06.294Z,31.26
2023-02-23T13:56:38.458Z,31.71
2023-02-23T13:59:08.467Z,32.36
2023-02-23T14:01:40.013Z,32.84
2023-02-23T14:04:37.339Z,33.33
2023-02-23T14:07:05.652Z,34.13
2023-02-23T14:09:36.923Z,35.12
2023-02-23T14:12:42.845Z,35.04
2023-02-23T14:15:28.262Z,35.63
2023-02-23T14:17:59.503Z,35.78
2023-02-23T14:20:38.555Z,36.53
2023-02-23T14:23:12.200Z,36.73
2023-02-23T14:25:38.974Z,36.97
2023-02-23T14:28:22.765Z,37.05
2023-02-23T14:30:59.422Z,37.01
2023-02-23T14:33:42.904Z,37.40
2023-02-23T14:36:21.689Z,37.93
2023-02-23T14:38:58.004Z,37.96
2023-02-23T14:41:30.330Z,38.15
2023-02-23T14:44:29.502Z,38.26
2023-02-23T14:47:23.929Z,38.74
2023-02-23T14:49:58.945Z,39.16
2023-02-23T14:52:35.974Z,39.46
2023-02-23T14:55:09.071Z,38.90
2023-02-23T14:57:36.262Z,38.81
2023-02-23T15:00:13.136Z,38.70
2023-02-23T15:02:53.621Z,39.06
2023-02-23T15:05:23.148Z,39.57
2023-02-23T15:07:51.996Z,40.19
2023-02-23T15:10:23.096Z,40.78
2023-02-23T15:12:50.736Z,41.00
2023-02-23T15:15:19.348Z,40.84
2023-02-23T15:17:47.400Z,41.10
2023-02-23T15:20:17.546Z,41.31
2023-02-23T15:22:47.006Z,41.09
2023-02-23T15:25:16.488Z,40.74
2023-02-23T15:27:45.441Z,41.07
2023-02-23T15:30:31.217Z,41.65
2023-02-23T15:33:11.471Z,42.15
2023-02-23T15:35:47.627Z,42.22
2023-02-23T15:38:42.331Z,42.55
2023-02-23T15:41:15.407Z,42.64
2023-02-23T15:43:42.718Z,43.15
2023-02-23T15:46:09.636Z,42.93
2023-02-23T15:48:47.206Z,43.54
2023-02-23T15:51:25.045Z,43.07
2023-02-23T15:53:52.272Z,43.09
2023-02-23T15:56:30.354Z,43.02
2023-02-23T15:58:59.158Z,43.23
2023-02-23T16:01:30.423Z,43.45
2023-02-23T16:03:57.159Z,43.83
2023-02-23T16:06:25.263Z,43.82
2023-02-23T16:09:06.020Z,44.17
2023-02-23T16:11:36.183Z,44.39
2023-02-23T16:14:05.577Z,44.80
2023-02-23T16:16:34.771Z,45.15
2023-02-23T16:19:01.711Z,45.22
2023-02-23T16:21:31.839Z,44.54
2023-02-23T16:24:02.138Z,44.06
2023-02-23T16:26:34.555Z,43.39
2023-02-23T16:29:02.392Z,43.32
2023-02-23T16:31:44.275Z,43.48
2023-02-23T16:34:25.429Z,43.35
2023-02-23T16:36:56.496Z,43.61
2023-02-23T16:39:29.554Z,43.33
2023-02-23T16:41:59.835Z,43.23
2023-02-23T16:44:34.297Z,42.98
2023-02-23T16:47:08.459Z,43.42
2023-02-23T16:49:35.262Z,44.04
2023-02-23T16:52:02.282Z,43.69
2023-02-23T16:54:29.222Z,43.72
2023-02-23T16:56:56.537Z,43.68
2023-02-23T16:59:23.415Z,43.66
2023-02-23T17:01:51.114Z,43.67
2023-02-23T17:04:19.108Z,43.66
2023-02-23T17:06:47.565Z,43.24
2023-02-23T17:09:14.492Z,42.90
2023-02-23T17:11:41.381Z,42.74
2023-02-23T17:14:08.317Z,42.93
2023-02-23T17:16:35.220Z,42.69
2023-02-23T17:19:02.433Z,42.75
2023-02-23T17:21:29.452Z,42.85
2023-02-23T17:24:02.991Z,43.46
2023-02-23T17:26:29.733Z,43.55
2023-02-23T17:28:56.620Z,43.50
2023-02-23T17:31:25.783Z,43.78
2023-02-23T17:33:55.435Z,44.30
2023-02-23T17:36:24.026Z,44.34
2023-02-23T17:38:50.896Z,44.74
2023-02-23T17:41:19.385Z,44.79
2023-02-23T17:43:46.575Z,45.07
2023-02-23T17:46:13.625Z,45.60
2023-02-23T17:48:44.667Z,45.36
2023-02-23T17:51:13.030Z,45.24
2023-02-23T17:53:39.877Z,45.58
2023-02-23T17:56:07.000Z,45.58
2023-02-23T17:58:34.001Z,45.59
2023-02-23T18:01:03.201Z,45.71
2023-02-23T18:03:34.702Z,45.77
2023-02-23T18:06:06.966Z,45.71
2023-02-23T18:08:33.834Z,45.58
2023-02-23T18:11:00.772Z,45.47
2023-02-23T18:13:28.507Z,45.80
2023-02-23T18:16:08.389Z,45.82
2023-02-23T18:18:36.471Z,45.70
2023-02-23T18:21:03.368Z,45.55
2023-02-23T18:23:32.983Z,45.69
2023-02-23T18:26:10.553Z,45.90
2023-02-23T18:28:38.773Z,45.91
2023-02-23T18:31:05.787Z,46.07
2023-02-23T18:33:35.938Z,46.17
2023-02-23T18:36:04.163Z,46.29
2023-02-23T18:38:30.909Z,46.51
2023-02-23T18:40:58.540Z,46.97
2023-02-23T18:43:25.550Z,46.72
2023-02-23T18:45:52.481Z,46.90
2023-02-23T18:48:19.371Z,47.29
2023-02-23T18:50:46.259Z,47.29
2023-02-23T18:53:13.011Z,47.41
2023-02-23T18:55:41.099Z,47.53
2023-02-23T18:58:08.048Z,47.78
2023-02-23T19:00:40.274Z,47.75
2023-02-23T19:03:07.492Z,47.98
2023-02-23T19:05:36.383Z,47.81
2023-02-23T19:08:13.577Z,48.16
2023-02-23T19:10:40.840Z,47.96
2023-02-23T19:13:09.070Z,47.91
2023-02-23T19:15:35.980Z,48.23
2023-02-23T19:18:03.496Z,48.23
2023-02-23T19:20:35.799Z,48.03
2023-02-23T19:23:05.961Z,48.22
2023-02-23T19:25:33.010Z,48.25
2023-02-23T19:27:59.798Z,48.16
2023-02-23T19:30:27.175Z,48.02
2023-02-23T19:32:54.172Z,48.16
2023-02-23T19:35:21.474Z,48.01
2023-02-23T19:37:49.524Z,48.01
2023-02-23T19:40:19.858Z,47.98
2023-02-23T19:42:50.530Z,48.06
2023-02-23T19:45:17.980Z,48.27
2023-02-23T19:47:46.220Z,48.12
2023-02-23T19:50:13.833Z,48.11
2023-02-23T19:52:40.716Z,48.23
2023-02-23T19:55:08.084Z,48.28
2023-02-23T19:57:35.104Z,48.25
2023-02-23T20:00:01.859Z,48.24
2023-02-23T20:02:28.687Z,48.58
2023-02-23T20:04:55.612Z,48.27
2023-02-23T20:07:22.385Z,48.51
2023-02-23T20:09:49.186Z,48.37
2023-02-23T20:12:16.115Z,48.49
2023-02-23T20:14:43.831Z,48.41
2023-02-23T20:17:10.752Z,48.35
2023-02-23T20:19:37.542Z,48.47
2023-02-23T20:22:04.358Z,48.60
2023-02-23T20:24:31.148Z,48.63
2023-02-23T20:26:59.445Z,48.50
2023-02-23T20:29:28.233Z,48.73
2023-02-23T20:31:55.119Z,48.77
2023-02-23T20:34:24.372Z,48.95
2023-02-23T20:36:51.878Z,48.74
2023-02-23T20:39:19.260Z,48.66
2023-02-23T20:41:47.988Z,48.80
2023-02-23T20:44:15.709Z,48.84
2023-02-23T20:46:43.028Z,49.13
2023-02-23T20:49:13.150Z,48.97
2023-02-23T20:51:43.838Z,49.13
2023-02-23T20:54:11.286Z,49.15
2023-02-23T20:56:41.078Z,48.97
2023-02-23T20:59:11.379Z,48.97
2023-02-23T21:01:42.065Z,49.11
2023-02-23T21:04:09.004Z,49.17
2023-02-23T21:06:35.837Z,48.99
2023-02-23T21:09:05.595Z,49.12
2023-02-23T21:11:32.466Z,49.08
2023-02-23T21:13:59.540Z,49.12
2023-02-23T21:16:26.627Z,49.19
2023-02-23T21:19:04.254Z,49.26
2023-02-23T21:21:38.933Z,49.18
2023-02-23T21:24:06.016Z,49.53
2023-02-23T21:26:32.824Z,49.46
2023-02-23T21:28:59.758Z,49.56
2023-02-23T21:31:26.757Z,49.69
2023-02-23T21:33:53.812Z,49.79
2023-02-23T21:36:20.800Z,49.82
2023-02-23T21:38:47.647Z,50.04
2023-02-23T21:41:15.114Z,49.93
2023-02-23T21:43:43.144Z,50.03
2023-02-23T21:46:14.524Z,50.16
2023-02-23T21:48:41.775Z,50.07
2023-02-23T21:51:11.758Z,50.19
2023-02-23T21:53:38.473Z,50.06
2023-02-23T21:56:13.662Z,50.04
2023-02-23T21:58:46.976Z,50.27
2023-02-23T22:01:18.256Z,50.34
2023-02-23T22:03:45.487Z,50.40
2023-02-23T22:06:13.514Z,50.25
2023-02-23T22:08:40.440Z,50.38
2023-02-23T22:11:08.923Z,50.40
2023-02-23T22:13:35.810Z,50.55
2023-02-23T22:16:03.319Z,50.68
2023-02-23T22:18:30.212Z,50.43
2023-02-23T22:21:01.771Z,50.70
2023-02-23T22:23:28.654Z,50.65
2023-02-23T22:25:55.504Z,50.51
2023-02-23T22:28:22.316Z,50.71
2023-02-23T22:30:51.271Z,50.62
2023-02-23T22:33:24.228Z,50.39
2023-02-23T22:35:51.279Z,50.70
2023-02-23T22:38:20.843Z,50.46
2023-02-23T22:40:47.984Z,50.80
2023-02-23T22:43:17.618Z,50.60
2023-02-23T22:45:44.492Z,50.45
2023-02-23T22:48:11.326Z,50.62
2023-02-23T22:50:38.283Z,50.60
2023-02-23T22:53:06.004Z,50.52
2023-02-23T22:55:34.021Z,50.46
2023-02-23T22:58:01.297Z,50.59
2023-02-23T23:00:29.114Z,50.68
2023-02-23T23:02:56.003Z,50.41
2023-02-23T23:05:22.901Z,50.59
2023-02-23T23:07:49.771Z,50.73
2023-02-23T23:10:17.696Z,50.85
2023-02-23T23:12:44.775Z,51.20
2023-02-23T23:15:15.037Z,51.27
2023-02-23T23:17:51.426Z,51.39
2023-02-23T23:20:22.909Z,51.53
2023-02-23T23:22:50.077Z,51.69
2023-02-23T23:25:23.322Z,52.01
2023-02-23T23:27:53.328Z,51.93
2023-02-23T23:30:29.394Z,52.07
2023-02-23T23:32:57.414Z,52.21
2023-02-23T23:35:26.125Z,52.27
2023-02-23T23:37:53.093Z,52.46
2023-02-23T23:40:24.584Z,52.53
2023-02-23T23:42:51.552Z,52.34
2023-02-23T23:45:19.077Z,52.42
2023-02-23T23:47:46.191Z,52.37
2023-02-23T23:50:13.748Z,52.31
2023-02-23T23:52:43.640Z,52.24
2023-02-23T23:55:14.894Z,52.32
2023-02-23T23:57:42.039Z,52.12
